createdAt,value
2023-02-11T00:00:05.802Z,66.39
2023-02-11T00:02:36.087Z,67.17
2023-02-11T00:05:06.609Z,67.58
2023-02-11T00:07:36.674Z,67.31
2023-02-11T00:10:09.469Z,67.66
2023-02-11T00:12:39.944Z,66.77
2023-02-11T00:15:10.235Z,65.79
2023-02-11T00:17:40.275Z,65.98
2023-02-11T00:20:10.609Z,66.01
2023-02-11T00:22:40.704Z,66.41
2023-02-11T00:25:10.999Z,67.36
2023-02-11T00:27:41.116Z,67.83
2023-02-11T00:30:12.066Z,67.65
2023-02-11T00:32:44.008Z,67.50
2023-02-11T00:35:14.000Z,67.64
2023-02-11T00:37:44.217Z,67.42
2023-02-11T00:40:14.530Z,67.14
2023-02-11T00:42:45.056Z,66.84
2023-02-11T00:45:15.243Z,66.68
2023-02-11T00:47:45.277Z,66.62
2023-02-11T00:50:15.255Z,66.36
2023-02-11T00:52:45.485Z,66.46
2023-02-11T00:55:15.883Z,66.24
2023-02-11T00:57:45.900Z,66.46
2023-02-11T01:00:16.487Z,66.70
2023-02-11T01:02:47.803Z,66.20
2023-02-11T01:05:17.823Z,66.09
2023-02-11T01:07:47.910Z,66.62
2023-02-11T01:10:19.456Z,66.39
2023-02-11T01:12:49.615Z,66.24
2023-02-11T01:15:21.302Z,65.96
2023-02-11T01:17:51.318Z,65.89
2023-02-11T01:20:24.719Z,65.88
2023-02-11T01:22:54.942Z,66.06
2023-02-11T01:25:24.945Z,65.82
2023-02-11T01:27:54.961Z,65.73
2023-02-11T01:30:25.628Z,64.65
2023-02-11T01:32:55.831Z,63.72
2023-02-11T01:35:26.444Z,63.62
2023-02-11T01:37:56.696Z,63.50
2023-02-11T01:40:27.499Z,62.98
2023-02-11T01:42:57.664Z,63.61
2023-02-11T01:45:42.022Z,62.57
2023-02-11T01:48:15.181Z,62.49
2023-02-11T01:50:46.879Z,62.80
2023-02-11T01:53:35.961Z,62.83
2023-02-11T01:56:28.173Z,62.50
2023-02-11T01:59:04.473Z,62.15
2023-02-11T02:01:35.827Z,61.83
2023-02-11T02:04:07.533Z,61.61
2023-02-11T02:06:42.495Z,61.04
2023-02-11T02:09:20.497Z,61.26
2023-02-11T02:11:50.724Z,60.73
2023-02-11T02:14:20.887Z,61.00
2023-02-11T02:16:50.890Z,60.06
2023-02-11T02:19:33.285Z,60.48
2023-02-11T02:22:15.838Z,60.17
2023-02-11T02:24:58.180Z,59.68
2023-02-11T02:27:35.899Z,60.01
2023-02-11T02:30:24.664Z,59.93
2023-02-11T02:33:23.622Z,60.37
2023-02-11T02:36:12.577Z,60.00
2023-02-11T02:39:02.654Z,59.85
2023-02-11T02:41:34.202Z,60.28
2023-02-11T02:44:04.512Z,59.56
2023-02-11T02:46:35.630Z,59.43
2023-02-11T02:49:06.106Z,59.93
2023-02-11T02:52:08.837Z,60.90
2023-02-11T02:54:44.563Z,60.97
2023-02-11T02:57:26.995Z,61.00
2023-02-11T02:59:59.959Z,60.96
2023-02-11T03:02:44.111Z,61.42
2023-02-11T03:05:20.291Z,62.02
2023-02-11T03:08:10.619Z,61.53
2023-02-11T03:10:44.529Z,61.53
2023-02-11T03:13:18.427Z,61.59
2023-02-11T03:15:51.316Z,60.90
2023-02-11T03:18:24.376Z,61.23
2023-02-11T03:20:55.952Z,61.94
2023-02-11T03:23:31.490Z,62.57
2023-02-11T03:26:06.898Z,62.86
2023-02-11T03:28:44.670Z,62.62
2023-02-11T03:31:14.847Z,62.55
2023-02-11T03:33:53.616Z,62.63
2023-02-11T03:36:28.863Z,62.51
2023-02-11T03:39:01.178Z,62.89
2023-02-11T03:41:32.909Z,62.46
2023-02-11T03:44:04.002Z,61.92
2023-02-11T03:46:36.272Z,61.11
2023-02-11T03:49:10.270Z,58.42
2023-02-11T03:51:41.012Z,58.80
2023-02-11T03:54:15.356Z,57.65
2023-02-11T03:56:55.769Z,57.77
2023-02-11T03:59:26.024Z,57.73
2023-02-11T04:01:56.737Z,57.53
2023-02-11T04:04:27.306Z,57.89
2023-02-11T04:06:59.045Z,57.44
2023-02-11T04:09:29.130Z,56.77
2023-02-11T04:11:59.175Z,57.40
2023-02-11T04:14:29.294Z,57.69
2023-02-11T04:16:59.807Z,57.83
2023-02-11T04:19:29.860Z,57.87
2023-02-11T04:22:00.102Z,57.56
2023-02-11T04:24:30.855Z,57.94
2023-02-11T04:27:01.447Z,57.46
2023-02-11T04:29:31.497Z,57.75
2023-02-11T04:32:01.768Z,57.10
2023-02-11T04:34:32.674Z,57.14
2023-02-11T04:37:02.860Z,57.30
2023-02-11T04:39:32.899Z,57.54
2023-02-11T04:42:02.999Z,56.99
2023-02-11T04:44:33.130Z,56.93
2023-02-11T04:47:03.311Z,57.28
2023-02-11T04:49:33.473Z,57.40
2023-02-11T04:52:03.545Z,57.19
2023-02-11T04:54:34.186Z,58.19
2023-02-11T04:57:04.989Z,58.43
2023-02-11T04:59:35.833Z,58.83
2023-02-11T05:02:06.001Z,59.27
2023-02-11T05:04:36.180Z,59.34
2023-02-11T05:07:06.883Z,59.72
2023-02-11T05:09:37.809Z,59.94
2023-02-11T05:12:08.143Z,59.89
2023-02-11T05:14:38.696Z,59.90
2023-02-11T05:17:09.019Z,60.07
2023-02-11T05:19:39.510Z,60.34
2023-02-11T05:22:09.669Z,60.16
2023-02-11T05:24:39.979Z,59.86
2023-02-11T05:27:10.754Z,60.94
2023-02-11T05:29:40.805Z,59.71
2023-02-11T05:32:11.101Z,56.94
2023-02-11T05:34:41.626Z,54.64
2023-02-11T05:37:11.879Z,53.24
2023-02-11T05:39:42.055Z,52.19
2023-02-11T05:42:12.313Z,50.68
2023-02-11T05:44:42.775Z,49.69
2023-02-11T05:47:13.054Z,48.48
2023-02-11T05:49:43.789Z,47.87
2023-02-11T05:52:13.825Z,47.43
2023-02-11T05:54:44.087Z,46.51
2023-02-11T05:57:14.846Z,45.82
2023-02-11T05:59:45.086Z,45.24
2023-02-11T06:02:15.291Z,45.28
2023-02-11T06:04:45.834Z,44.73
2023-02-11T06:07:16.024Z,44.56
2023-02-11T06:09:46.131Z,43.77
2023-02-11T06:12:16.591Z,43.74
2023-02-11T06:14:46.948Z,43.49
2023-02-11T06:17:17.162Z,43.23
2023-02-11T06:19:47.350Z,42.95
2023-02-11T06:22:17.859Z,43.18
2023-02-11T06:25:00.913Z,42.58
2023-02-11T06:27:33.099Z,42.42
2023-02-11T06:30:03.291Z,42.86
2023-02-11T06:32:49.835Z,42.52
2023-02-11T06:35:20.105Z,41.85
2023-02-11T06:37:51.156Z,41.97
2023-02-11T06:40:21.669Z,42.06
2023-02-11T06:42:51.798Z,42.01
2023-02-11T06:45:22.067Z,41.51
2023-02-11T06:47:53.063Z,41.76
2023-02-11T06:50:23.232Z,41.45
2023-02-11T06:52:53.415Z,41.58
2023-02-11T06:55:23.698Z,41.18
2023-02-11T06:57:53.992Z,40.69
2023-02-11T07:00:24.305Z,41.06
2023-02-11T07:02:54.611Z,43.81
2023-02-11T07:05:25.039Z,43.03
2023-02-11T07:07:55.725Z,42.80
2023-02-11T07:10:25.973Z,42.54
2023-02-11T07:12:58.659Z,42.13
2023-02-11T07:15:28.976Z,41.58
2023-02-11T07:17:59.177Z,41.42
2023-02-11T07:20:29.523Z,41.52
2023-02-11T07:23:01.476Z,41.20
2023-02-11T07:25:31.757Z,41.41
2023-02-11T07:28:02.097Z,42.04
2023-02-11T07:30:32.855Z,42.88
2023-02-11T07:33:03.544Z,43.11
2023-02-11T07:35:33.766Z,49.49
2023-02-11T07:38:04.434Z,52.30
2023-02-11T07:40:34.601Z,53.66
2023-02-11T07:43:05.014Z,54.96
2023-02-11T07:45:35.721Z,55.15
2023-02-11T07:48:05.947Z,55.43
2023-02-11T07:50:36.302Z,56.09
2023-02-11T07:53:07.018Z,55.92
2023-02-11T07:55:37.166Z,55.90
2023-02-11T07:58:07.373Z,55.97
2023-02-11T08:00:37.570Z,56.05
2023-02-11T08:03:09.781Z,55.88
2023-02-11T08:05:40.637Z,56.05
2023-02-11T08:08:10.794Z,56.30
2023-02-11T08:10:41.076Z,56.56
2023-02-11T08:13:11.247Z,56.15
2023-02-11T08:15:41.499Z,56.14
2023-02-11T08:18:11.659Z,56.26
2023-02-11T08:20:42.258Z,56.48
2023-02-11T08:23:12.402Z,56.85
2023-02-11T08:25:42.569Z,57.22
2023-02-11T08:28:12.823Z,56.95
2023-02-11T08:30:43.155Z,57.54
2023-02-11T08:33:13.784Z,57.21
2023-02-11T08:35:44.028Z,57.60
2023-02-11T08:38:14.245Z,57.71
2023-02-11T08:40:44.865Z,57.54
2023-02-11T08:43:15.045Z,57.77
2023-02-11T08:45:46.145Z,57.47
2023-02-11T08:48:16.362Z,57.27
2023-02-11T08:50:46.591Z,57.09
2023-02-11T08:53:19.610Z,57.12
2023-02-11T08:55:53.303Z,57.30
2023-02-11T08:58:23.775Z,57.85
2023-02-11T09:00:54.114Z,58.24
2023-02-11T09:03:24.477Z,58.14
2023-02-11T09:05:56.199Z,58.24
2023-02-11T09:08:26.249Z,58.40
2023-02-11T09:10:59.430Z,58.01
2023-02-11T09:13:30.034Z,58.09
2023-02-11T09:16:05.684Z,57.94
2023-02-11T09:18:35.937Z,57.72
2023-02-11T09:21:07.489Z,57.40
2023-02-11T09:23:37.847Z,57.14
2023-02-11T09:26:09.492Z,56.57
2023-02-11T09:28:39.871Z,56.25
2023-02-11T09:31:11.876Z,55.94
2023-02-11T09:33:49.201Z,55.63
2023-02-11T09:36:21.151Z,55.26
2023-02-11T09:38:51.743Z,55.18
2023-02-11T09:41:27.805Z,54.99
2023-02-11T09:44:04.293Z,54.71
2023-02-11T09:46:38.470Z,54.64
2023-02-11T09:49:09.687Z,54.18
2023-02-11T09:51:48.712Z,54.06
2023-02-11T09:54:30.900Z,53.89
2023-02-11T09:57:00.894Z,53.71
2023-02-11T09:59:30.942Z,53.29
2023-02-11T10:02:04.453Z,53.50
2023-02-11T10:04:43.533Z,53.15
2023-02-11T10:07:16.937Z,53.15
2023-02-11T10:09:51.650Z,52.73
2023-02-11T10:12:42.013Z,52.94
2023-02-11T10:15:19.381Z,53.02
2023-02-11T10:18:07.647Z,52.84
2023-02-11T10:20:44.345Z,52.74
2023-02-11T10:23:21.162Z,52.97
2023-02-11T10:25:55.869Z,53.02
2023-02-11T10:28:30.429Z,52.96
2023-02-11T10:31:02.518Z,53.33
2023-02-11T10:33:43.022Z,53.21
2023-02-11T10:36:13.881Z,53.33
2023-02-11T10:38:44.592Z,53.34
2023-02-11T10:41:24.364Z,53.46
2023-02-11T10:43:54.624Z,53.82
2023-02-11T10:46:28.325Z,53.79
2023-02-11T10:48:58.485Z,54.01
2023-02-11T10:51:33.081Z,54.02
2023-02-11T10:54:06.144Z,53.98
2023-02-11T10:56:38.128Z,54.09
2023-02-11T10:59:27.157Z,54.22
2023-02-11T11:02:02.701Z,54.83
2023-02-11T11:04:35.870Z,54.87
2023-02-11T11:07:23.089Z,55.00
2023-02-11T11:10:03.880Z,55.12
2023-02-11T11:12:49.291Z,57.24
2023-02-11T11:15:23.157Z,58.43
2023-02-11T11:18:20.980Z,59.26
2023-02-11T11:20:58.309Z,59.64
2023-02-11T11:23:31.177Z,60.26
2023-02-11T11:26:01.139Z,60.52
2023-02-11T11:28:35.263Z,61.19
2023-02-11T11:31:05.673Z,61.61
2023-02-11T11:33:37.072Z,61.25
2023-02-11T11:36:09.869Z,61.68
2023-02-11T11:38:45.870Z,61.63
2023-02-11T11:41:17.210Z,62.17
2023-02-11T11:44:00.613Z,63.01
2023-02-11T11:46:32.473Z,63.11
2023-02-11T11:49:09.433Z,64.16
2023-02-11T11:51:42.875Z,64.12
2023-02-11T11:54:18.229Z,64.20
2023-02-11T11:57:02.444Z,64.40
2023-02-11T11:59:32.735Z,64.55
2023-02-11T12:02:14.898Z,64.97
2023-02-11T12:04:48.037Z,65.15
2023-02-11T12:07:21.636Z,64.64
2023-02-11T12:09:55.875Z,64.71
2023-02-11T12:12:33.644Z,64.55
2023-02-11T12:15:13.573Z,64.14
2023-02-11T12:17:43.604Z,64.04
2023-02-11T12:20:19.073Z,64.11
2023-02-11T12:23:14.341Z,63.83
2023-02-11T12:25:47.812Z,63.98
2023-02-11T12:28:26.810Z,63.56
2023-02-11T12:31:05.914Z,62.92
2023-02-11T12:33:46.356Z,59.71
2023-02-11T12:36:22.767Z,56.54
2023-02-11T12:38:58.572Z,54.51
2023-02-11T12:41:52.738Z,52.75
2023-02-11T12:44:39.252Z,52.32
2023-02-11T12:47:15.850Z,51.16
2023-02-11T12:49:51.847Z,49.75
2023-02-11T12:52:30.192Z,50.02
2023-02-11T12:55:23.751Z,48.72
2023-02-11T12:57:56.044Z,48.07
2023-02-11T13:00:30.282Z,47.80
2023-02-11T13:03:24.122Z,47.10
2023-02-11T13:06:00.635Z,46.40
2023-02-11T13:08:33.815Z,46.75
2023-02-11T13:11:14.554Z,46.03
2023-02-11T13:13:47.661Z,46.15
2023-02-11T13:16:36.214Z,46.31
2023-02-11T13:19:06.902Z,46.09
2023-02-11T13:21:55.666Z,45.51
2023-02-11T13:24:46.329Z,45.41
2023-02-11T13:27:19.446Z,44.02
2023-02-11T13:29:50.812Z,43.53
2023-02-11T13:32:20.964Z,42.86
2023-02-11T13:34:53.922Z,43.08
2023-02-11T13:37:28.600Z,42.11
2023-02-11T13:40:22.182Z,42.56
2023-02-11T13:42:52.352Z,42.05
2023-02-11T13:45:31.304Z,41.75
2023-02-11T13:48:03.706Z,41.68
2023-02-11T13:50:36.905Z,40.67
2023-02-11T13:53:09.551Z,41.24
2023-02-11T13:55:40.525Z,41.15
2023-02-11T13:58:10.745Z,40.82
2023-02-11T14:00:40.917Z,41.98
2023-02-11T14:03:32.199Z,43.47
2023-02-11T14:06:26.335Z,44.08
2023-02-11T14:09:11.829Z,44.68
2023-02-11T14:11:42.360Z,44.68
2023-02-11T14:14:26.612Z,44.58
2023-02-11T14:17:09.267Z,44.45
2023-02-11T14:19:41.170Z,44.23
2023-02-11T14:22:11.469Z,43.57
2023-02-11T14:24:47.812Z,43.28
2023-02-11T14:27:27.123Z,43.69
2023-02-11T14:30:06.173Z,43.01
2023-02-11T14:32:42.428Z,42.84
2023-02-11T14:35:29.299Z,43.24
2023-02-11T14:38:21.536Z,43.73
2023-02-11T14:40:52.371Z,44.00
2023-02-11T14:43:29.541Z,44.29
2023-02-11T14:46:00.676Z,43.55
2023-02-11T14:48:38.852Z,43.01
2023-02-11T14:51:12.159Z,42.97
2023-02-11T14:53:46.573Z,43.11
2023-02-11T14:56:26.049Z,42.50
2023-02-11T14:58:57.101Z,42.00
2023-02-11T15:01:36.790Z,41.91
2023-02-11T15:04:08.252Z,42.07
2023-02-11T15:06:42.756Z,41.70
2023-02-11T15:09:16.007Z,41.98
2023-02-11T15:11:48.204Z,41.62
2023-02-11T15:14:28.669Z,41.44
2023-02-11T15:17:00.397Z,42.40
2023-02-11T15:19:34.490Z,42.72
2023-02-11T15:22:12.079Z,42.58
2023-02-11T15:24:44.568Z,42.41
2023-02-11T15:27:19.878Z,42.03
2023-02-11T15:29:50.995Z,42.12
2023-02-11T15:32:23.035Z,41.58
2023-02-11T15:34:54.818Z,41.84
2023-02-11T15:37:31.204Z,41.66
2023-02-11T15:40:24.274Z,41.44
2023-02-11T15:42:59.348Z,41.80
2023-02-11T15:45:34.055Z,41.41
2023-02-11T15:48:10.622Z,41.59
2023-02-11T15:50:42.661Z,41.65
2023-02-11T15:53:23.333Z,41.11
2023-02-11T15:55:55.103Z,41.25
2023-02-11T15:58:25.743Z,41.31
2023-02-11T16:01:01.085Z,41.19
2023-02-11T16:03:33.934Z,41.03
2023-02-11T16:06:19.293Z,40.92
2023-02-11T16:09:06.730Z,40.37
2023-02-11T16:11:38.069Z,40.62
2023-02-11T16:14:38.568Z,41.09
2023-02-11T16:17:23.792Z,40.86
2023-02-11T16:19:54.617Z,40.78
2023-02-11T16:22:26.567Z,40.81
2023-02-11T16:24:58.840Z,40.57
2023-02-11T16:27:31.894Z,40.82
2023-02-11T16:30:02.626Z,40.61
2023-02-11T16:32:33.114Z,44.79
2023-02-11T16:35:03.460Z,46.51
2023-02-11T16:37:34.048Z,45.58
2023-02-11T16:40:04.020Z,45.96
2023-02-11T16:42:34.133Z,45.44
2023-02-11T16:45:04.822Z,45.26
2023-02-11T16:47:36.462Z,45.36
2023-02-11T16:50:09.896Z,45.18
2023-02-11T16:52:39.903Z,44.69
2023-02-11T16:55:15.306Z,43.64
2023-02-11T16:57:45.532Z,43.69
2023-02-11T17:00:17.796Z,43.39
2023-02-11T17:02:48.088Z,43.07
2023-02-11T17:05:24.238Z,42.65
2023-02-11T17:07:54.387Z,42.30
2023-02-11T17:10:25.213Z,42.27
2023-02-11T17:12:55.425Z,42.04
2023-02-11T17:15:25.645Z,41.91
2023-02-11T17:17:55.744Z,41.86
2023-02-11T17:20:25.940Z,42.00
2023-02-11T17:22:56.049Z,41.90
2023-02-11T17:25:26.486Z,41.92
2023-02-11T17:27:56.894Z,41.19
2023-02-11T17:30:27.468Z,41.45
2023-02-11T17:32:57.636Z,41.01
2023-02-11T17:35:27.884Z,41.34
2023-02-11T17:38:00.121Z,41.38
2023-02-11T17:40:30.470Z,41.28
2023-02-11T17:43:00.888Z,41.09
2023-02-11T17:45:31.207Z,40.77
2023-02-11T17:48:01.713Z,41.16
2023-02-11T17:50:31.917Z,41.60
2023-02-11T17:53:02.188Z,42.16
2023-02-11T17:55:34.735Z,41.99
2023-02-11T17:58:04.913Z,42.53
2023-02-11T18:00:35.440Z,42.93
2023-02-11T18:03:05.993Z,43.02
2023-02-11T18:05:37.428Z,43.17
2023-02-11T18:08:08.680Z,43.15
2023-02-11T18:10:39.432Z,43.50
2023-02-11T18:13:09.530Z,43.55
2023-02-11T18:15:39.552Z,43.47
2023-02-11T18:18:09.584Z,43.55
2023-02-11T18:20:39.616Z,43.77
2023-02-11T18:23:09.651Z,43.54
2023-02-11T18:25:42.709Z,43.90
2023-02-11T18:28:13.135Z,43.77
2023-02-11T18:30:43.268Z,43.88
2023-02-11T18:33:15.729Z,43.85
2023-02-11T18:35:47.465Z,43.91
2023-02-11T18:38:17.816Z,43.92
2023-02-11T18:40:52.041Z,44.05
2023-02-11T18:43:22.449Z,44.01
2023-02-11T18:45:53.129Z,44.09
2023-02-11T18:48:23.422Z,44.23
2023-02-11T18:50:53.446Z,43.87
2023-02-11T18:53:23.909Z,44.08
2023-02-11T18:55:54.637Z,44.30
2023-02-11T18:58:25.033Z,44.39
2023-02-11T19:00:55.174Z,44.43
2023-02-11T19:03:25.306Z,44.11
2023-02-11T19:05:55.774Z,44.26
2023-02-11T19:08:25.941Z,44.09
2023-02-11T19:10:56.081Z,43.93
2023-02-11T19:13:26.078Z,44.06
2023-02-11T19:15:56.030Z,44.03
2023-02-11T19:18:26.034Z,44.24
2023-02-11T19:20:56.238Z,44.18
2023-02-11T19:23:26.509Z,44.40
2023-02-11T19:25:56.502Z,44.20
2023-02-11T19:28:26.656Z,44.37
2023-02-11T19:30:56.921Z,44.19
2023-02-11T19:33:26.987Z,44.00
2023-02-11T19:35:56.948Z,44.00
2023-02-11T19:38:27.013Z,44.12
2023-02-11T19:40:57.703Z,44.31
2023-02-11T19:43:28.221Z,44.29
2023-02-11T19:45:59.110Z,44.25
2023-02-11T19:48:29.820Z,44.19
2023-02-11T19:50:59.863Z,44.33
2023-02-11T19:53:30.469Z,44.42
2023-02-11T19:56:02.603Z,44.14
2023-02-11T19:58:33.005Z,44.27
2023-02-11T20:01:10.344Z,44.19
2023-02-11T20:03:42.499Z,44.50
2023-02-11T20:06:17.299Z,44.36
2023-02-11T20:08:47.489Z,44.48
2023-02-11T20:11:18.952Z,44.54
2023-02-11T20:13:50.645Z,44.35
2023-02-11T20:16:23.099Z,44.15
2023-02-11T20:18:55.224Z,44.48
2023-02-11T20:21:29.326Z,44.47
2023-02-11T20:24:00.188Z,44.38
2023-02-11T20:26:31.416Z,44.21
2023-02-11T20:29:04.705Z,44.42
2023-02-11T20:31:35.653Z,44.56
2023-02-11T20:34:05.983Z,44.34
2023-02-11T20:36:38.910Z,44.57
2023-02-11T20:39:09.449Z,44.47
2023-02-11T20:41:42.296Z,44.58
2023-02-11T20:44:12.366Z,44.51
2023-02-11T20:46:44.322Z,44.51
2023-02-11T20:49:15.378Z,44.41
2023-02-11T20:51:45.618Z,44.41
2023-02-11T20:54:16.595Z,44.51
2023-02-11T20:56:48.182Z,44.21
2023-02-11T20:59:18.989Z,44.09
2023-02-11T21:01:50.457Z,44.23
2023-02-11T21:04:21.967Z,44.17
2023-02-11T21:06:53.676Z,44.43
2023-02-11T21:09:24.996Z,44.30
2023-02-11T21:11:56.204Z,44.39
2023-02-11T21:14:27.378Z,44.40
2023-02-11T21:16:57.466Z,44.83
2023-02-11T21:19:27.751Z,46.86
2023-02-11T21:21:58.720Z,49.01
2023-02-11T21:24:28.942Z,50.88
2023-02-11T21:26:59.333Z,51.16
2023-02-11T21:29:29.450Z,52.63
2023-02-11T21:31:59.491Z,51.12
2023-02-11T21:34:29.597Z,49.60
2023-02-11T21:36:59.672Z,48.83
2023-02-11T21:39:29.705Z,48.43
2023-02-11T21:41:59.727Z,48.08
2023-02-11T21:44:29.840Z,47.28
2023-02-11T21:47:01.106Z,47.30
2023-02-11T21:49:31.230Z,46.88
2023-02-11T21:52:01.169Z,46.54
2023-02-11T21:54:33.447Z,46.37
2023-02-11T21:57:04.643Z,46.36
2023-02-11T21:59:35.191Z,46.02
2023-02-11T22:02:05.228Z,46.39
2023-02-11T22:04:35.218Z,45.77
2023-02-11T22:07:05.335Z,45.65
2023-02-11T22:09:35.356Z,45.58
2023-02-11T22:12:05.523Z,45.80
2023-02-11T22:14:35.545Z,45.47
2023-02-11T22:17:05.859Z,45.57
2023-02-11T22:19:36.127Z,46.94
2023-02-11T22:22:06.801Z,48.87
2023-02-11T22:24:39.855Z,50.71
2023-02-11T22:27:10.282Z,53.06
2023-02-11T22:29:40.321Z,53.70
2023-02-11T22:32:10.317Z,53.19
2023-02-11T22:34:41.040Z,51.84
2023-02-11T22:37:11.342Z,50.49
2023-02-11T22:39:41.589Z,49.69
2023-02-11T22:42:11.647Z,49.06
2023-02-11T22:44:41.636Z,48.65
2023-02-11T22:47:11.666Z,48.40
2023-02-11T22:49:42.813Z,47.84
2023-02-11T22:52:12.834Z,47.28
2023-02-11T22:54:42.822Z,47.20
2023-02-11T22:57:12.763Z,46.87
2023-02-11T22:59:42.712Z,46.67
2023-02-11T23:02:12.818Z,47.32
2023-02-11T23:04:42.908Z,48.19
2023-02-11T23:07:13.712Z,48.69
2023-02-11T23:09:44.375Z,49.29
2023-02-11T23:12:14.417Z,49.67
2023-02-11T23:14:44.414Z,49.87
2023-02-11T23:17:14.454Z,50.31
2023-02-11T23:19:44.410Z,50.68
2023-02-11T23:22:14.429Z,51.13
2023-02-11T23:24:44.457Z,51.64
2023-02-11T23:27:15.156Z,52.51
2023-02-11T23:29:45.677Z,52.40
2023-02-11T23:32:15.795Z,52.71
2023-02-11T23:34:45.799Z,52.89
2023-02-11T23:37:15.793Z,53.34
2023-02-11T23:39:45.906Z,58.13
2023-02-11T23:42:16.469Z,59.96
2023-02-11T23:44:46.502Z,61.87
2023-02-11T23:47:16.504Z,62.45
2023-02-11T23:49:46.628Z,63.69
2023-02-11T23:52:16.812Z,64.16
2023-02-11T23:54:49.566Z,64.23
2023-02-11T23:57:19.899Z,65.31
2023-02-11T23:59:52.783Z,65.49
